createdAt,value
2022-08-11T00:02:36.086Z,101457.25
2022-08-11T00:05:08.912Z,101459.44
2022-08-11T00:07:43.725Z,101449.28
2022-08-11T00:10:13.785Z,101451.22
2022-08-11T00:12:42.742Z,101448.03
2022-08-11T00:15:10.231Z,101447.16
2022-08-11T00:17:37.685Z,101449.84
2022-08-11T00:20:12.616Z,101443.94
2022-08-11T00:22:44.969Z,101448.66
2022-08-11T00:25:16.968Z,101446.34
2022-08-11T00:27:43.881Z,101450.22
2022-08-11T00:30:12.075Z,101440.66
2022-08-11T00:32:42.267Z,101445.94
2022-08-11T00:35:56.094Z,101450.97
2022-08-11T00:38:03.366Z,101453.94
2022-08-11T00:41:11.254Z,101458.38
2022-08-11T00:43:46.891Z,101455.53
2022-08-11T00:46:16.366Z,101463.59
2022-08-11T00:49:00.369Z,101458.53
2022-08-11T00:52:05.376Z,101457.34
2022-08-11T00:54:44.989Z,101453.91
2022-08-11T00:57:37.505Z,101456.09
2022-08-11T01:00:20.629Z,101466.69
2022-08-11T01:03:08.700Z,101460.78
2022-08-11T01:06:01.943Z,101464.34
2022-08-11T01:09:06.970Z,101467.06
2022-08-11T01:11:55.501Z,101464.78
2022-08-11T01:14:44.294Z,101463.09
2022-08-11T01:17:58.900Z,101457.66
2022-08-11T01:20:53.313Z,101466.81
2022-08-11T01:23:50.972Z,101466.16
2022-08-11T01:29:30.262Z,101476.00
2022-08-11T01:32:46.639Z,101473.63
2022-08-11T01:35:27.506Z,101476.34
2022-08-11T01:38:31.588Z,101480.75
2022-08-11T01:41:54.196Z,101475.34
2022-08-11T01:44:38.733Z,101472.13
2022-08-11T01:47:52.953Z,101478.22
2022-08-11T01:50:32.091Z,101482.59
2022-08-11T01:53:04.794Z,101485.41
2022-08-11T01:55:44.868Z,101482.00
2022-08-11T01:58:43.480Z,101494.28
2022-08-11T02:01:20.449Z,101492.56
2022-08-11T02:04:31.312Z,101497.53
2022-08-11T02:07:17.005Z,101506.19
2022-08-11T02:10:35.343Z,101495.78
2022-08-11T02:13:36.900Z,101497.31
2022-08-11T02:16:21.673Z,101494.38
2022-08-11T02:19:19.093Z,101496.19
2022-08-11T02:22:17.532Z,101494.19
2022-08-11T02:25:05.954Z,101499.66
2022-08-11T02:27:43.379Z,101501.00
2022-08-11T02:30:14.561Z,101500.66
2022-08-11T02:33:09.523Z,101500.56
2022-08-11T02:35:50.275Z,101503.22
2022-08-11T02:38:41.990Z,101497.56
2022-08-11T02:42:04.796Z,101494.69
2022-08-11T02:44:49.101Z,101499.56
2022-08-11T02:48:03.799Z,101498.13
2022-08-11T02:50:35.453Z,101494.34
2022-08-11T02:53:30.362Z,101499.56
2022-08-11T02:56:09.050Z,101504.22
2022-08-11T02:58:44.155Z,101496.34
2022-08-11T03:01:28.338Z,101498.75
2022-08-11T03:04:08.696Z,101508.72
2022-08-11T03:06:48.208Z,101512.25
2022-08-11T03:09:24.546Z,101508.25
2022-08-11T03:12:15.346Z,101508.75
2022-08-11T03:15:28.288Z,101514.78
2022-08-11T03:18:26.202Z,101509.06
2022-08-11T03:21:24.419Z,101507.88
2022-08-11T03:24:25.645Z,101509.44
2022-08-11T03:27:01.258Z,101509.09
2022-08-11T03:29:38.418Z,101502.31
2022-08-11T03:32:21.669Z,101503.66
2022-08-11T03:34:50.587Z,101515.28
2022-08-11T03:37:38.629Z,101505.44
2022-08-11T03:40:59.173Z,101508.97
2022-08-11T03:44:07.750Z,101506.06
2022-08-11T03:46:58.969Z,101514.91
2022-08-11T03:50:02.149Z,101508.72
2022-08-11T03:52:53.734Z,101512.59
2022-08-11T03:55:21.918Z,101515.63
2022-08-11T03:58:00.541Z,101509.19
2022-08-11T04:00:48.530Z,101519.47
2022-08-11T04:03:33.495Z,101511.84
2022-08-11T04:06:36.190Z,101516.81
2022-08-11T04:09:35.987Z,101523.34
2022-08-11T04:12:35.832Z,101511.59
2022-08-11T04:15:56.251Z,101510.38
2022-08-11T04:18:50.729Z,101509.16
2022-08-11T04:21:35.562Z,101514.13
2022-08-11T04:24:37.953Z,101511.84
2022-08-11T04:27:39.050Z,101510.38
2022-08-11T04:30:33.929Z,101509.78
2022-08-11T04:33:39.543Z,101510.63
2022-08-11T04:36:09.507Z,101523.19
2022-08-11T04:38:55.189Z,101519.94
2022-08-11T04:42:12.688Z,101517.78
2022-08-11T04:45:09.910Z,101522.97
2022-08-11T04:48:15.361Z,101525.97
2022-08-11T04:51:19.013Z,101530.69
2022-08-11T04:54:26.374Z,101534.31
2022-08-11T04:57:28.265Z,101538.81
2022-08-11T05:00:24.255Z,101541.81
2022-08-11T05:03:13.800Z,101531.53
2022-08-11T05:06:01.734Z,101537.94
2022-08-11T05:08:47.259Z,101537.72
2022-08-11T05:11:34.850Z,101535.31
2022-08-11T05:14:46.242Z,101545.31
2022-08-11T05:17:36.348Z,101543.66
2022-08-11T05:20:21.437Z,101545.81
2022-08-11T05:23:09.410Z,101544.72
2022-08-11T05:26:43.267Z,101545.22
2022-08-11T05:29:20.090Z,101549.94
2022-08-11T05:32:15.594Z,101548.59
2022-08-11T05:34:53.436Z,101553.66
2022-08-11T05:37:34.431Z,101550.44
2022-08-11T05:40:31.682Z,101556.59
2022-08-11T05:43:30.536Z,101554.41
2022-08-11T05:46:20.500Z,101556.47
2022-08-11T05:49:07.266Z,101551.91
2022-08-11T05:52:05.691Z,101555.44
2022-08-11T05:55:00.129Z,101552.88
2022-08-11T05:57:49.403Z,101553.75
2022-08-11T06:00:19.225Z,101552.66
2022-08-11T06:02:59.092Z,101541.31
2022-08-11T06:05:38.299Z,101546.88
2022-08-11T06:08:10.452Z,101550.47
2022-08-11T06:10:40.638Z,101547.41
2022-08-11T06:13:08.409Z,101551.84
2022-08-11T06:15:46.141Z,101549.66
2022-08-11T06:18:13.898Z,101545.72
2022-08-11T06:20:48.728Z,101550.16
2022-08-11T06:23:18.726Z,101554.63
2022-08-11T06:25:46.310Z,101549.56
2022-08-11T06:28:20.400Z,101543.66
2022-08-11T06:30:48.936Z,101547.22
2022-08-11T06:33:30.394Z,101543.00
2022-08-11T06:36:13.545Z,101539.88
2022-08-11T06:38:52.000Z,101542.31
2022-08-11T06:41:30.328Z,101531.91
2022-08-11T06:44:13.086Z,101536.03
2022-08-11T06:46:40.903Z,101534.47
2022-08-11T06:49:29.816Z,101527.41
2022-08-11T06:52:04.410Z,101531.19
2022-08-11T06:54:35.166Z,101537.47
2022-08-11T06:57:30.856Z,101534.53
2022-08-11T07:00:17.934Z,101526.88
2022-08-11T07:02:54.681Z,101536.31
2022-08-11T07:05:47.219Z,101530.03
2022-08-11T07:08:44.698Z,101527.38
2022-08-11T07:11:54.227Z,101526.38
2022-08-11T07:14:43.543Z,101521.78
2022-08-11T07:17:17.379Z,101513.81
2022-08-11T07:20:11.913Z,101515.63
2022-08-11T07:22:58.334Z,101517.97
2022-08-11T07:25:44.909Z,101514.69
2022-08-11T07:28:36.601Z,101513.69
2022-08-11T07:31:09.539Z,101505.31
2022-08-11T07:34:08.269Z,101502.84
2022-08-11T07:36:31.885Z,101507.66
2022-08-11T07:38:59.346Z,101498.69
2022-08-11T07:41:28.621Z,101489.16
2022-08-11T07:44:09.084Z,101483.84
2022-08-11T07:46:59.713Z,101479.41
2022-08-11T07:49:48.018Z,101484.16
2022-08-11T07:52:26.935Z,101485.25
2022-08-11T07:55:02.535Z,101483.56
2022-08-11T07:58:15.050Z,101482.69
2022-08-11T08:01:01.933Z,101489.13
2022-08-11T08:03:54.263Z,101481.19
2022-08-11T08:06:42.036Z,101481.13
2022-08-11T08:09:28.767Z,101477.41
2022-08-11T08:12:15.545Z,101471.47
2022-08-11T08:15:01.143Z,101478.19
2022-08-11T08:18:09.953Z,101479.50
2022-08-11T08:20:37.866Z,101473.50
2022-08-11T08:23:05.754Z,101473.16
2022-08-11T08:25:35.156Z,101474.16
2022-08-11T08:28:06.160Z,101472.13
2022-08-11T08:30:47.823Z,101469.28
2022-08-11T08:33:18.532Z,101471.97
2022-08-11T08:35:54.580Z,101475.00
2022-08-11T08:38:22.938Z,101465.53
2022-08-11T08:40:56.003Z,101468.75
2022-08-11T08:43:24.091Z,101468.38
2022-08-11T08:45:55.950Z,101465.16
2022-08-11T08:48:25.710Z,101462.19
2022-08-11T08:51:21.784Z,101468.22
2022-08-11T08:53:54.467Z,101451.06
2022-08-11T08:56:28.303Z,101454.84
2022-08-11T08:58:57.626Z,101449.03
2022-08-11T09:01:25.691Z,101448.88
2022-08-11T09:04:05.385Z,101445.38
2022-08-11T09:06:40.107Z,101448.56
2022-08-11T09:09:12.173Z,101446.25
2022-08-11T09:11:55.056Z,101448.94
2022-08-11T09:14:53.850Z,101441.19
2022-08-11T09:17:21.545Z,101449.31
2022-08-11T09:20:01.523Z,101448.06
2022-08-11T09:23:10.530Z,101440.19
2022-08-11T09:25:56.085Z,101435.41
2022-08-11T09:28:23.815Z,101431.97
2022-08-11T09:30:55.155Z,101429.97
2022-08-11T09:33:24.052Z,101429.97
2022-08-11T09:35:52.653Z,101426.59
2022-08-11T09:38:43.216Z,101430.59
2022-08-11T09:41:14.151Z,101413.69
2022-08-11T09:44:04.524Z,101411.16
2022-08-11T09:46:33.154Z,101413.53
2022-08-11T09:49:01.166Z,101425.00
2022-08-11T09:51:32.297Z,101419.72
2022-08-11T09:54:07.556Z,101416.41
2022-08-11T09:56:53.461Z,101414.69
2022-08-11T09:59:22.072Z,101407.03
2022-08-11T10:01:55.117Z,101403.25
2022-08-11T10:04:34.748Z,101387.09
2022-08-11T10:07:06.883Z,101406.16
2022-08-11T10:09:43.833Z,101413.63
2022-08-11T10:12:14.747Z,101398.97
2022-08-11T10:15:03.953Z,101397.19
2022-08-11T10:17:39.403Z,101395.38
2022-08-11T10:20:08.864Z,101392.78
2022-08-11T10:22:54.786Z,101384.63
2022-08-11T10:25:40.566Z,101385.44
2022-08-11T10:28:30.648Z,101384.63
2022-08-11T10:31:15.354Z,101377.09
2022-08-11T10:34:00.255Z,101372.06
2022-08-11T10:36:48.488Z,101358.66
2022-08-11T10:39:18.421Z,101362.66
2022-08-11T10:42:09.550Z,101358.44
2022-08-11T10:44:50.673Z,101367.63
2022-08-11T10:47:35.918Z,101374.09
2022-08-11T10:50:22.050Z,101369.41
2022-08-11T10:53:08.824Z,101371.59
2022-08-11T10:55:58.362Z,101356.75
2022-08-11T10:58:44.398Z,101351.75
2022-08-11T11:01:12.271Z,101339.34
2022-08-11T11:03:39.533Z,101335.78
2022-08-11T11:06:28.346Z,101330.34
2022-08-11T11:09:05.362Z,101325.81
2022-08-11T11:11:57.370Z,101331.41
2022-08-11T11:14:50.782Z,101323.69
2022-08-11T11:17:47.829Z,101315.56
2022-08-11T11:20:36.976Z,101310.03
2022-08-11T11:23:06.732Z,101312.94
2022-08-11T11:26:12.495Z,101314.16
2022-08-11T11:29:13.158Z,101305.75
2022-08-11T11:32:17.834Z,101288.72
2022-08-11T11:35:02.789Z,101290.66
2022-08-11T11:37:40.616Z,101291.00
2022-08-11T11:40:28.694Z,101299.44
2022-08-11T11:42:59.915Z,101299.69
2022-08-11T11:45:26.513Z,101299.41
2022-08-11T11:47:55.478Z,101291.81
2022-08-11T11:50:31.713Z,101287.03
2022-08-11T11:53:01.574Z,101278.19
2022-08-11T11:55:29.463Z,101267.16
2022-08-11T11:58:18.631Z,101267.44
2022-08-11T12:01:05.578Z,101268.72
2022-08-11T12:03:34.025Z,101261.41
2022-08-11T12:06:00.920Z,101248.34
2022-08-11T12:08:28.331Z,101254.44
2022-08-11T12:11:21.902Z,101261.25
2022-08-11T12:13:53.931Z,101244.66
2022-08-11T12:16:34.190Z,101236.56
2022-08-11T12:19:23.592Z,101247.78
2022-08-11T12:22:10.203Z,101243.38
2022-08-11T12:24:56.317Z,101235.50
2022-08-11T12:27:25.538Z,101226.47
2022-08-11T12:30:05.865Z,101226.59
2022-08-11T12:32:35.116Z,101234.44
2022-08-11T12:35:02.217Z,101232.16
2022-08-11T12:37:35.074Z,101223.47
2022-08-11T12:40:42.132Z,101219.38
2022-08-11T12:43:38.199Z,101216.31
2022-08-11T12:46:19.898Z,101206.22
2022-08-11T12:49:08.180Z,101208.34
2022-08-11T12:52:11.727Z,101212.72
2022-08-11T12:54:49.679Z,101205.28
2022-08-11T12:57:41.242Z,101204.97
2022-08-11T13:00:27.876Z,101189.38
2022-08-11T13:03:14.498Z,101191.78
2022-08-11T13:05:46.241Z,101189.72
2022-08-11T13:08:15.298Z,101176.03
2022-08-11T13:11:02.119Z,101174.63
2022-08-11T13:13:54.300Z,101174.53
2022-08-11T13:16:17.643Z,101165.31
2022-08-11T13:18:45.038Z,101165.97
2022-08-11T13:21:20.040Z,101162.28
2022-08-11T13:24:01.354Z,101163.34
2022-08-11T13:26:41.629Z,101170.19
2022-08-11T13:29:23.885Z,101163.22
2022-08-11T13:31:52.496Z,101170.38
2022-08-11T13:34:20.468Z,101161.19
2022-08-11T13:36:52.033Z,101159.38
2022-08-11T13:39:20.560Z,101164.50
2022-08-11T13:41:48.560Z,101147.28
2022-08-11T13:44:23.212Z,101151.13
2022-08-11T13:46:53.920Z,101146.09
2022-08-11T13:49:21.782Z,101147.91
2022-08-11T13:51:49.284Z,101145.88
2022-08-11T13:54:25.318Z,101148.38
2022-08-11T13:56:56.958Z,101151.22
2022-08-11T13:59:31.205Z,101133.78
2022-08-11T14:02:21.524Z,101133.69
2022-08-11T14:05:07.211Z,101130.25
2022-08-11T14:07:40.068Z,101126.38
2022-08-11T14:10:08.976Z,101123.28
2022-08-11T14:12:56.205Z,101123.31
2022-08-11T14:15:34.074Z,101104.72
2022-08-11T14:18:18.140Z,101108.97
2022-08-11T14:21:10.498Z,101105.31
2022-08-11T14:23:46.719Z,101103.75
2022-08-11T14:26:29.045Z,101096.25
2022-08-11T14:29:02.066Z,101103.09
2022-08-11T14:31:33.776Z,101101.53
2022-08-11T14:34:06.510Z,101092.72
2022-08-11T14:36:39.149Z,101082.16
2022-08-11T14:39:12.899Z,101085.53
2022-08-11T14:42:10.483Z,101085.22
2022-08-11T14:45:04.633Z,101085.81
2022-08-11T14:47:34.731Z,101078.09
2022-08-11T14:50:10.292Z,101080.84
2022-08-11T14:52:49.008Z,101077.81
2022-08-11T14:55:35.322Z,101071.66
2022-08-11T14:58:02.645Z,101074.28
2022-08-11T15:00:30.242Z,101064.00
2022-08-11T15:03:11.841Z,101061.22
2022-08-11T15:05:56.054Z,101057.13
2022-08-11T15:08:47.142Z,101064.38
2022-08-11T15:11:34.621Z,101051.22
2022-08-11T15:14:03.379Z,101047.91
2022-08-11T15:16:48.950Z,101039.38
2022-08-11T15:19:19.604Z,101050.69
2022-08-11T15:22:04.758Z,101043.31
2022-08-11T15:24:33.533Z,101046.22
2022-08-11T15:27:22.509Z,101049.13
2022-08-11T15:30:10.040Z,101039.25
2022-08-11T15:33:04.641Z,101039.66
2022-08-11T15:35:53.461Z,101031.00
2022-08-11T15:38:22.044Z,101038.88
2022-08-11T15:41:07.836Z,101030.16
2022-08-11T15:44:15.148Z,101017.25
2022-08-11T15:46:45.735Z,101026.69
2022-08-11T15:49:22.266Z,101017.59
2022-08-11T15:52:10.642Z,101015.13
2022-08-11T15:54:46.351Z,101025.34
2022-08-11T15:57:39.955Z,101024.84
2022-08-11T16:00:26.580Z,101020.34
2022-08-11T16:02:56.886Z,101019.94
2022-08-11T16:05:46.118Z,101014.94
2022-08-11T16:08:15.362Z,101015.03
2022-08-11T16:10:44.076Z,100999.50
2022-08-11T16:13:13.223Z,101005.81
2022-08-11T16:16:09.058Z,100995.94
2022-08-11T16:18:47.081Z,101001.31
2022-08-11T16:21:26.244Z,101000.09
2022-08-11T16:24:06.123Z,100996.69
2022-08-11T16:27:11.200Z,100996.16
2022-08-11T16:29:25.033Z,101000.19
2022-08-11T16:32:11.592Z,100993.97
2022-08-11T16:34:58.605Z,100995.06
2022-08-11T16:37:45.642Z,100987.56
2022-08-11T16:40:13.149Z,100998.19
2022-08-11T16:43:09.965Z,100992.81
2022-08-11T16:45:58.524Z,100993.16
2022-08-11T16:48:37.278Z,100991.84
2022-08-11T16:51:10.467Z,100988.84
2022-08-11T16:53:46.108Z,100994.75
2022-08-11T16:56:35.042Z,100999.78
2022-08-11T16:59:16.535Z,100992.69
2022-08-11T17:01:53.987Z,100998.03
2022-08-11T17:05:04.300Z,100994.94
2022-08-11T17:07:49.641Z,101003.56
2022-08-11T17:10:52.732Z,100999.97
2022-08-11T17:13:31.805Z,100995.84
2022-08-11T17:16:10.875Z,100995.25
2022-08-11T17:18:55.679Z,100989.38
2022-08-11T17:21:26.645Z,100990.97
2022-08-11T17:24:05.064Z,100990.13
2022-08-11T17:26:58.604Z,100991.66
2022-08-11T17:29:54.536Z,100985.13
2022-08-11T17:32:56.730Z,100989.94
2022-08-11T17:35:33.398Z,100988.94
2022-08-11T17:38:17.901Z,100988.50
2022-08-11T17:41:10.730Z,100990.13
2022-08-11T17:44:09.257Z,100988.09
2022-08-11T17:46:55.598Z,100986.53
2022-08-11T17:49:23.594Z,100997.78
2022-08-11T17:52:10.635Z,100991.72
2022-08-11T17:54:58.184Z,100999.06
2022-08-11T17:57:47.775Z,100995.03
2022-08-11T18:00:15.574Z,101001.94
2022-08-11T18:03:06.246Z,101006.09
2022-08-11T18:05:37.084Z,101009.41
2022-08-11T18:08:26.441Z,101011.97
2022-08-11T18:11:17.456Z,101007.97
2022-08-11T18:14:22.928Z,101006.59
2022-08-11T18:17:07.699Z,101007.34
2022-08-11T18:19:53.114Z,101010.72
2022-08-11T18:22:48.576Z,101010.25
2022-08-11T18:25:45.505Z,101011.31
2022-08-11T18:28:33.516Z,101011.47
2022-08-11T18:31:21.425Z,101014.78
2022-08-11T18:34:14.752Z,101019.56
2022-08-11T18:37:20.611Z,101026.78
2022-08-11T18:40:15.226Z,101019.16
2022-08-11T18:43:03.081Z,101032.44
2022-08-11T18:45:52.760Z,101028.78
2022-08-11T18:48:55.307Z,101032.50
2022-08-11T18:51:42.735Z,101030.09
2022-08-11T18:54:30.827Z,101033.88
2022-08-11T18:57:20.749Z,101038.09
2022-08-11T19:00:07.094Z,101043.03
2022-08-11T19:02:55.691Z,101043.66
2022-08-11T19:06:35.868Z,101048.00
2022-08-11T19:08:53.515Z,101047.81
2022-08-11T19:11:42.418Z,101052.94
2022-08-11T19:14:30.576Z,101059.22
2022-08-11T19:17:44.618Z,101061.16
2022-08-11T19:20:30.116Z,101064.72
2022-08-11T19:23:15.962Z,101063.47
2022-08-11T19:26:02.708Z,101078.38
2022-08-11T19:28:48.607Z,101072.28
2022-08-11T19:31:34.157Z,101079.44
2022-08-11T19:34:20.250Z,101084.84
2022-08-11T19:37:06.615Z,101091.09
2022-08-11T19:39:53.810Z,101097.94
2022-08-11T19:42:40.286Z,101085.19
2022-08-11T19:45:26.358Z,101089.38
2022-08-11T19:48:31.138Z,101100.38
2022-08-11T19:51:18.691Z,101099.75
2022-08-11T19:54:06.469Z,101102.47
2022-08-11T19:56:53.457Z,101096.97
2022-08-11T19:59:41.796Z,101102.19
2022-08-11T20:02:28.769Z,101104.25
2022-08-11T20:05:13.753Z,101106.88
2022-08-11T20:07:59.681Z,101100.72
2022-08-11T20:10:47.152Z,101111.28
2022-08-11T20:13:33.782Z,101116.97
2022-08-11T20:16:21.261Z,101115.63
2022-08-11T20:19:09.081Z,101119.69
2022-08-11T20:21:56.389Z,101125.97
2022-08-11T20:24:42.362Z,101115.91
2022-08-11T20:27:29.348Z,101124.50
2022-08-11T20:30:17.255Z,101118.94
2022-08-11T20:33:03.325Z,101120.69
2022-08-11T20:35:50.180Z,101125.28
2022-08-11T20:38:37.004Z,101129.84
2022-08-11T20:41:23.047Z,101121.59
2022-08-11T20:44:10.322Z,101133.66
2022-08-11T20:46:57.845Z,101127.84
2022-08-11T20:49:53.606Z,101128.53
2022-08-11T20:52:47.151Z,101130.91
2022-08-11T20:55:46.346Z,101124.19
2022-08-11T21:01:45.440Z,101128.31
2022-08-11T21:04:31.258Z,101136.59
2022-08-11T21:07:28.035Z,101129.44
2022-08-11T21:10:23.307Z,101136.94
2022-08-11T21:13:18.007Z,101141.63
2022-08-11T21:16:16.350Z,101140.38
2022-08-11T21:19:15.661Z,101133.78
2022-08-11T21:22:03.746Z,101144.66
2022-08-11T21:24:50.823Z,101146.19
2022-08-11T21:27:38.908Z,101144.06
2022-08-11T21:30:24.715Z,101141.06
2022-08-11T21:33:11.349Z,101147.63
2022-08-11T21:35:56.859Z,101151.38
2022-08-11T21:38:42.625Z,101154.56
2022-08-11T21:41:29.445Z,101151.28
2022-08-11T21:44:16.252Z,101154.09
2022-08-11T21:47:02.453Z,101154.19
2022-08-11T21:49:49.790Z,101159.53
2022-08-11T21:52:35.157Z,101155.91
2022-08-11T21:55:21.195Z,101160.47
2022-08-11T21:58:07.235Z,101158.78
2022-08-11T22:00:52.545Z,101158.84
2022-08-11T22:03:49.797Z,101156.63
2022-08-11T22:06:36.808Z,101158.06
2022-08-11T22:09:22.119Z,101151.09
2022-08-11T22:12:34.301Z,101160.13
2022-08-11T22:15:13.010Z,101157.91
2022-08-11T22:17:58.428Z,101163.25
2022-08-11T22:20:45.775Z,101159.66
2022-08-11T22:23:36.348Z,101162.19
2022-08-11T22:26:22.779Z,101165.03
2022-08-11T22:29:08.239Z,101161.41
2022-08-11T22:31:55.319Z,101163.69
2022-08-11T22:34:52.790Z,101165.94
2022-08-11T22:37:39.491Z,101167.56
2022-08-11T22:40:26.028Z,101166.44
2022-08-11T22:43:10.950Z,101166.47
2022-08-11T22:45:56.361Z,101164.50
2022-08-11T22:48:44.587Z,101164.78
2022-08-11T22:51:31.402Z,101178.50
2022-08-11T22:54:18.369Z,101172.59
2022-08-11T22:57:03.468Z,101172.03
2022-08-11T22:59:49.362Z,101174.28
2022-08-11T23:02:34.916Z,101179.88
2022-08-11T23:05:21.454Z,101173.41
2022-08-11T23:08:07.041Z,101179.84
2022-08-11T23:10:52.660Z,101174.78
2022-08-11T23:13:40.209Z,101177.56
2022-08-11T23:16:26.093Z,101173.88
2022-08-11T23:19:13.258Z,101177.53
2022-08-11T23:21:59.238Z,101170.50
2022-08-11T23:24:44.953Z,101169.63
2022-08-11T23:27:32.320Z,101170.75
2022-08-11T23:30:19.678Z,101172.66
2022-08-11T23:33:09.876Z,101172.38
2022-08-11T23:36:02.294Z,101168.97
2022-08-11T23:38:51.306Z,101184.31
2022-08-11T23:41:36.833Z,101178.44
2022-08-11T23:44:24.327Z,101172.00
2022-08-11T23:47:13.872Z,101167.19
2022-08-11T23:50:00.782Z,101175.56
2022-08-11T23:52:47.761Z,101169.94
2022-08-11T23:55:33.280Z,101163.44
2022-08-11T23:58:18.729Z,101176.56
